createdAt,value
2022-08-30T00:01:59.073Z,11.40
2022-08-30T00:04:25.950Z,10.65
2022-08-30T00:06:52.552Z,11.20
2022-08-30T00:09:19.193Z,13.13
2022-08-30T00:11:45.758Z,11.48
2022-08-30T00:14:12.442Z,11.77
2022-08-30T00:16:38.940Z,12.40
2022-08-30T00:19:05.654Z,11.95
2022-08-30T00:21:32.778Z,11.82
2022-08-30T00:23:59.387Z,13.85
2022-08-30T00:26:25.982Z,13.15
2022-08-30T00:28:52.646Z,11.98
2022-08-30T00:31:19.202Z,12.75
2022-08-30T00:33:45.714Z,13.98
2022-08-30T00:36:12.251Z,12.80
2022-08-30T00:38:38.738Z,12.73
2022-08-30T00:41:05.300Z,12.55
2022-08-30T00:43:34.093Z,12.40
2022-08-30T00:46:04.815Z,13.38
2022-08-30T00:48:32.858Z,13.52
2022-08-30T00:51:05.195Z,14.00
2022-08-30T00:53:34.252Z,13.43
2022-08-30T00:56:01.409Z,13.68
2022-08-30T00:58:29.682Z,11.98
2022-08-30T01:00:57.514Z,14.80
2022-08-30T01:03:24.295Z,13.48
2022-08-30T01:05:51.627Z,13.75
2022-08-30T01:08:20.434Z,14.90
2022-08-30T01:10:47.009Z,13.68
2022-08-30T01:13:15.024Z,13.50
2022-08-30T01:15:42.778Z,13.60
2022-08-30T01:18:11.518Z,13.35
2022-08-30T01:20:45.393Z,13.45
2022-08-30T01:23:13.780Z,14.05
2022-08-30T01:25:42.428Z,15.20
2022-08-30T01:28:10.868Z,15.98
2022-08-30T01:30:39.085Z,13.10
2022-08-30T01:33:06.376Z,15.30
2022-08-30T01:35:44.559Z,16.40
2022-08-30T01:38:12.686Z,14.70
2022-08-30T01:40:39.219Z,16.35
2022-08-30T01:43:06.528Z,17.73
2022-08-30T01:45:33.325Z,16.30
2022-08-30T01:48:01.652Z,18.23
2022-08-30T01:50:30.486Z,19.35
2022-08-30T01:52:57.112Z,17.98
2022-08-30T01:55:23.689Z,18.20
2022-08-30T01:57:50.225Z,19.10
2022-08-30T02:00:16.957Z,17.63
2022-08-30T02:02:43.874Z,19.67
2022-08-30T02:05:10.780Z,19.45
2022-08-30T02:07:37.234Z,18.70
2022-08-30T02:10:04.473Z,20.60
2022-08-30T02:12:31.015Z,20.60
2022-08-30T02:14:58.029Z,21.65
2022-08-30T02:17:24.747Z,20.98
2022-08-30T02:19:51.316Z,25.10
2022-08-30T02:22:18.319Z,22.70
2022-08-30T02:24:44.798Z,23.15
2022-08-30T02:27:11.361Z,25.98
2022-08-30T02:29:37.857Z,24.52
2022-08-30T02:32:04.891Z,26.02
2022-08-30T02:34:31.369Z,25.40
2022-08-30T02:36:58.615Z,26.88
2022-08-30T02:39:25.093Z,26.50
2022-08-30T02:41:51.677Z,28.80
2022-08-30T02:44:18.203Z,26.92
2022-08-30T02:46:45.528Z,26.08
2022-08-30T02:51:58.520Z,28.10
2022-08-30T02:54:25.175Z,27.33
2022-08-30T02:56:51.789Z,27.40
2022-08-30T02:59:18.402Z,28.55
2022-08-30T03:01:45.420Z,26.98
2022-08-30T03:04:12.128Z,27.80
2022-08-30T03:06:38.873Z,28.38
2022-08-30T03:09:05.689Z,27.55
2022-08-30T03:11:32.372Z,29.95
2022-08-30T03:13:59.423Z,31.00
2022-08-30T03:16:25.945Z,30.08
2022-08-30T03:18:52.499Z,31.50
2022-08-30T03:21:18.995Z,28.92
2022-08-30T03:23:45.859Z,29.73
2022-08-30T03:26:14.820Z,31.58
2022-08-30T03:28:42.426Z,30.40
2022-08-30T03:31:08.931Z,30.00
2022-08-30T03:33:35.846Z,29.13
2022-08-30T03:36:02.426Z,31.85
2022-08-30T03:38:29.129Z,31.58
2022-08-30T03:40:55.605Z,32.83
2022-08-30T03:43:23.408Z,28.60
2022-08-30T03:45:50.417Z,32.47
2022-08-30T03:48:19.196Z,31.98
2022-08-30T03:50:45.745Z,30.98
2022-08-30T03:53:12.598Z,30.63
2022-08-30T03:55:39.189Z,31.40
2022-08-30T03:58:05.780Z,31.80
2022-08-30T04:00:32.320Z,31.77
2022-08-30T04:02:59.079Z,31.92
2022-08-30T04:05:25.638Z,28.58
2022-08-30T04:07:52.404Z,29.67
2022-08-30T04:10:21.292Z,29.30
2022-08-30T04:12:49.806Z,27.98
2022-08-30T04:15:17.738Z,26.08
2022-08-30T04:17:44.318Z,24.80
2022-08-30T04:20:11.124Z,23.25
2022-08-30T04:22:37.888Z,21.85
2022-08-30T04:25:05.065Z,22.02
2022-08-30T04:27:31.543Z,20.88
2022-08-30T04:29:58.748Z,22.02
2022-08-30T04:32:25.334Z,21.17
2022-08-30T04:34:55.919Z,18.42
2022-08-30T04:37:22.558Z,18.73
2022-08-30T04:39:49.047Z,19.20
2022-08-30T04:42:16.087Z,16.98
2022-08-30T04:44:42.538Z,18.15
2022-08-30T04:47:09.726Z,16.48
2022-08-30T04:49:36.522Z,16.02
2022-08-30T04:52:03.209Z,15.50
2022-08-30T04:54:29.683Z,15.90
2022-08-30T04:56:56.168Z,15.60
2022-08-30T04:59:22.689Z,13.60
2022-08-30T05:01:49.203Z,14.80
2022-08-30T05:04:16.183Z,12.45
2022-08-30T05:06:43.041Z,12.75
2022-08-30T05:09:09.518Z,13.80
2022-08-30T05:11:36.955Z,12.30
2022-08-30T05:14:03.510Z,11.68
2022-08-30T05:16:30.153Z,13.73
2022-08-30T05:18:56.734Z,11.77
2022-08-30T05:21:25.624Z,11.32
2022-08-30T05:23:56.079Z,12.95
2022-08-30T05:26:25.101Z,10.27
2022-08-30T05:28:51.814Z,10.63
2022-08-30T05:31:26.053Z,12.85
2022-08-30T05:33:53.806Z,9.57
2022-08-30T05:36:21.383Z,10.05
2022-08-30T05:38:47.972Z,9.65
2022-08-30T05:41:14.499Z,6.32
2022-08-30T05:43:40.981Z,7.20
2022-08-30T05:46:11.527Z,8.73
2022-08-30T05:48:38.824Z,7.13
2022-08-30T05:51:10.634Z,7.82
2022-08-30T05:53:37.980Z,7.50
2022-08-30T05:56:05.820Z,8.80
2022-08-30T05:58:32.379Z,8.00
2022-08-30T06:00:59.448Z,8.45
2022-08-30T06:03:27.109Z,7.68
2022-08-30T06:05:53.797Z,8.00
2022-08-30T06:08:20.624Z,6.40
2022-08-30T06:10:47.527Z,5.75
2022-08-30T06:13:14.644Z,6.80
2022-08-30T06:15:41.814Z,5.95
2022-08-30T06:18:08.330Z,5.95
2022-08-30T06:20:39.055Z,7.38
2022-08-30T06:23:05.630Z,5.90
2022-08-30T06:25:42.195Z,5.05
2022-08-30T06:28:09.599Z,5.95
2022-08-30T06:30:36.356Z,5.10
2022-08-30T06:33:03.187Z,7.13
2022-08-30T06:35:32.740Z,5.82
2022-08-30T06:38:01.965Z,4.50
2022-08-30T06:40:28.582Z,4.75
2022-08-30T06:42:55.098Z,7.50
2022-08-30T06:45:21.618Z,5.93
2022-08-30T06:47:48.745Z,4.88
2022-08-30T06:50:15.901Z,6.30
2022-08-30T06:52:43.748Z,5.40
2022-08-30T06:55:11.580Z,4.95
2022-08-30T06:57:38.307Z,5.53
2022-08-30T07:00:06.420Z,6.45
2022-08-30T07:02:33.569Z,5.18
2022-08-30T07:05:02.234Z,5.03
2022-08-30T07:07:28.803Z,3.38
2022-08-30T07:09:55.801Z,5.18
2022-08-30T07:12:22.409Z,5.00
2022-08-30T07:14:49.383Z,4.93
2022-08-30T07:17:35.048Z,4.70
2022-08-30T07:20:02.538Z,4.82
2022-08-30T07:22:29.291Z,5.25
2022-08-30T07:24:55.831Z,7.78
2022-08-30T07:27:22.300Z,5.68
2022-08-30T07:29:49.377Z,5.50
2022-08-30T07:32:16.005Z,5.18
2022-08-30T07:34:42.496Z,5.50
2022-08-30T07:37:08.955Z,5.35
2022-08-30T07:39:41.710Z,5.38
2022-08-30T07:42:12.369Z,4.82
2022-08-30T07:44:38.921Z,5.43
2022-08-30T07:47:05.461Z,4.78
2022-08-30T07:49:31.986Z,5.00
2022-08-30T07:51:58.467Z,3.80
2022-08-30T07:54:24.997Z,5.13
2022-08-30T07:56:54.378Z,3.53
2022-08-30T07:59:20.847Z,4.63
2022-08-30T08:01:47.446Z,4.90
2022-08-30T08:04:13.945Z,2.60
2022-08-30T08:06:40.598Z,3.67
2022-08-30T08:09:07.784Z,4.65
2022-08-30T08:11:34.726Z,3.20
2022-08-30T08:14:01.761Z,2.67
2022-08-30T08:16:29.219Z,3.58
2022-08-30T08:18:56.216Z,3.58
2022-08-30T08:21:23.452Z,3.78
2022-08-30T08:23:50.151Z,3.70
2022-08-30T08:26:16.829Z,3.53
2022-08-30T08:28:44.987Z,3.03
2022-08-30T08:31:15.495Z,5.18
2022-08-30T08:33:42.121Z,3.75
2022-08-30T08:36:09.511Z,5.40
2022-08-30T08:38:37.049Z,3.50
2022-08-30T08:41:22.960Z,2.55
2022-08-30T08:43:49.521Z,4.68
2022-08-30T08:46:19.044Z,1.70
2022-08-30T08:48:59.862Z,2.65
2022-08-30T08:51:46.768Z,2.20
2022-08-30T08:54:20.032Z,3.63
2022-08-30T08:59:14.991Z,19.45
2022-08-30T09:01:41.625Z,3.97
2022-08-30T09:04:14.423Z,4.10
2022-08-30T09:06:45.059Z,2.42
2022-08-30T09:09:12.143Z,1.83
2022-08-30T09:11:39.573Z,1.98
2022-08-30T09:14:10.446Z,2.47
2022-08-30T09:16:48.397Z,1.65
2022-08-30T09:19:34.624Z,2.53
2022-08-30T09:22:26.487Z,1.83
2022-08-30T09:24:55.979Z,3.22
2022-08-30T09:27:33.538Z,2.95
2022-08-30T09:30:16.803Z,4.45
2022-08-30T09:32:50.568Z,1.58
2022-08-30T09:35:22.403Z,3.58
2022-08-30T09:37:52.439Z,2.38
2022-08-30T09:40:37.730Z,2.28
2022-08-30T09:43:04.285Z,2.28
2022-08-30T09:45:32.972Z,3.78
2022-08-30T09:47:59.716Z,3.65
2022-08-30T09:50:29.668Z,2.28
2022-08-30T09:53:14.809Z,2.45
2022-08-30T09:55:50.099Z,1.55
2022-08-30T09:58:54.266Z,3.65
2022-08-30T10:01:45.935Z,2.75
2022-08-30T10:04:18.572Z,2.58
2022-08-30T10:06:47.991Z,5.43
2022-08-30T10:09:27.965Z,3.60
2022-08-30T10:12:01.692Z,4.95
2022-08-30T10:14:30.981Z,1.60
2022-08-30T10:16:57.499Z,3.47
2022-08-30T10:19:46.243Z,2.28
2022-08-30T10:22:15.828Z,3.53
2022-08-30T10:24:47.885Z,2.90
2022-08-30T10:27:26.254Z,3.58
2022-08-30T10:29:54.928Z,6.28
2022-08-30T10:32:26.706Z,3.75
2022-08-30T10:34:56.490Z,3.80
2022-08-30T10:37:27.119Z,4.18
2022-08-30T10:39:56.437Z,4.68
2022-08-30T10:42:34.614Z,3.78
2022-08-30T10:45:15.185Z,4.40
2022-08-30T10:47:44.797Z,5.30
2022-08-30T10:50:16.686Z,2.83
2022-08-30T10:52:45.919Z,3.10
2022-08-30T10:55:25.574Z,4.80
2022-08-30T10:57:52.706Z,2.50
2022-08-30T11:00:48.366Z,5.13
2022-08-30T11:03:14.837Z,3.88
2022-08-30T11:05:47.405Z,3.35
2022-08-30T11:08:37.665Z,4.00
2022-08-30T11:11:06.967Z,3.67
2022-08-30T11:13:40.637Z,1.80
2022-08-30T11:16:30.468Z,5.07
2022-08-30T11:18:57.604Z,4.75
2022-08-30T11:21:24.103Z,4.72
2022-08-30T11:24:10.817Z,1.73
2022-08-30T11:26:43.849Z,5.57
2022-08-30T11:29:38.138Z,3.50
2022-08-30T11:32:13.431Z,3.28
2022-08-30T11:34:49.454Z,2.25
2022-08-30T11:37:37.297Z,4.70
2022-08-30T11:40:26.238Z,1.98
2022-08-30T11:42:54.845Z,4.07
2022-08-30T11:45:25.188Z,4.32
2022-08-30T11:48:05.554Z,3.67
2022-08-30T11:50:39.374Z,3.08
2022-08-30T11:53:16.108Z,3.72
2022-08-30T11:55:49.534Z,2.10
2022-08-30T11:58:31.638Z,3.10
2022-08-30T12:01:40.824Z,2.05
2022-08-30T12:03:59.938Z,1.73
2022-08-30T12:06:41.423Z,2.38
2022-08-30T12:09:33.158Z,2.67
2022-08-30T12:12:32.461Z,3.63
2022-08-30T12:15:00.293Z,2.95
2022-08-30T12:17:50.606Z,1.92
2022-08-30T12:20:22.477Z,2.00
2022-08-30T12:22:49.845Z,2.03
2022-08-30T12:25:19.051Z,2.17
2022-08-30T12:27:46.844Z,6.03
2022-08-30T12:30:14.224Z,2.33
2022-08-30T12:32:45.552Z,2.22
2022-08-30T12:35:18.913Z,1.90
2022-08-30T12:37:55.042Z,2.13
2022-08-30T12:40:24.046Z,3.33
2022-08-30T12:42:51.167Z,2.45
2022-08-30T12:45:20.952Z,3.42
2022-08-30T12:48:02.748Z,2.60
2022-08-30T12:50:33.731Z,2.70
2022-08-30T12:53:02.837Z,3.60
2022-08-30T12:55:31.462Z,7.32
2022-08-30T12:58:00.832Z,2.85
2022-08-30T13:00:27.663Z,4.07
2022-08-30T13:02:56.087Z,1.67
2022-08-30T13:05:44.943Z,4.85
2022-08-30T13:08:11.900Z,1.88
2022-08-30T13:10:48.514Z,3.00
2022-08-30T13:13:26.216Z,2.22
2022-08-30T13:15:52.837Z,3.80
2022-08-30T13:18:27.378Z,2.83
2022-08-30T13:21:10.417Z,1.63
2022-08-30T13:23:36.915Z,3.28
2022-08-30T13:26:06.574Z,1.52
2022-08-30T13:28:42.689Z,3.50
2022-08-30T13:31:09.738Z,2.33
2022-08-30T13:33:36.724Z,2.78
2022-08-30T13:36:03.292Z,3.70
2022-08-30T13:38:29.770Z,1.30
2022-08-30T13:40:56.488Z,1.83
2022-08-30T13:43:23.037Z,2.13
2022-08-30T13:45:49.611Z,2.08
2022-08-30T13:48:17.499Z,1.77
2022-08-30T13:50:51.559Z,3.78
2022-08-30T13:53:51.868Z,1.75
2022-08-30T13:56:04.980Z,3.95
2022-08-30T13:58:31.848Z,1.50
2022-08-30T14:00:59.809Z,1.52
2022-08-30T14:03:26.529Z,2.78
2022-08-30T14:06:21.983Z,2.78
2022-08-30T14:08:48.749Z,3.83
2022-08-30T14:11:18.930Z,1.50
2022-08-30T14:16:34.795Z,1.45
2022-08-30T14:19:01.719Z,2.13
2022-08-30T14:21:28.339Z,3.55
2022-08-30T14:23:56.547Z,1.80
2022-08-30T14:26:32.259Z,2.33
2022-08-30T14:28:59.677Z,2.63
2022-08-30T14:31:26.215Z,1.85
2022-08-30T14:33:53.079Z,4.03
2022-08-30T14:36:19.710Z,1.38
2022-08-30T14:38:48.584Z,2.75
2022-08-30T14:41:15.425Z,2.63
2022-08-30T14:43:42.039Z,2.83
2022-08-30T14:46:10.574Z,2.35
2022-08-30T14:48:38.288Z,2.92
2022-08-30T14:51:16.673Z,3.35
2022-08-30T14:53:43.644Z,2.38
2022-08-30T14:56:11.680Z,1.92
2022-08-30T14:58:38.207Z,1.73
2022-08-30T15:01:08.998Z,2.25
2022-08-30T15:03:36.477Z,2.33
2022-08-30T15:06:03.039Z,4.88
2022-08-30T15:08:29.784Z,4.45
2022-08-30T15:10:56.307Z,2.17
2022-08-30T15:13:23.057Z,1.17
2022-08-30T15:15:49.839Z,3.72
2022-08-30T15:18:20.113Z,3.28
2022-08-30T15:20:47.863Z,2.33
2022-08-30T15:23:16.893Z,2.28
2022-08-30T15:25:43.515Z,2.25
2022-08-30T15:28:10.101Z,3.78
2022-08-30T15:30:36.750Z,2.47
2022-08-30T15:33:03.238Z,4.15
2022-08-30T15:35:29.915Z,1.55
2022-08-30T15:37:57.503Z,2.50
2022-08-30T15:40:24.617Z,1.38
2022-08-30T15:42:52.969Z,2.90
2022-08-30T15:45:19.483Z,2.85
2022-08-30T15:47:46.142Z,2.03
2022-08-30T15:50:12.939Z,1.55
2022-08-30T15:52:39.412Z,2.35
2022-08-30T15:55:06.274Z,2.85
2022-08-30T15:57:32.907Z,3.60
2022-08-30T15:59:59.641Z,2.88
2022-08-30T16:02:27.771Z,3.15
2022-08-30T16:04:54.840Z,5.50
2022-08-30T16:07:21.366Z,1.92
2022-08-30T16:09:47.907Z,2.25
2022-08-30T16:12:23.293Z,3.03
2022-08-30T16:14:51.082Z,3.75
2022-08-30T16:17:18.176Z,2.08
2022-08-30T16:19:44.930Z,1.85
2022-08-30T16:22:11.406Z,2.92
2022-08-30T16:24:38.686Z,1.92
2022-08-30T16:27:05.788Z,3.83
2022-08-30T16:29:35.289Z,3.15
2022-08-30T16:32:01.889Z,1.83
2022-08-30T16:34:28.424Z,3.28
2022-08-30T16:36:55.020Z,3.70
2022-08-30T16:39:21.590Z,2.30
2022-08-30T16:41:48.276Z,2.75
2022-08-30T16:44:15.961Z,3.03
2022-08-30T16:46:52.728Z,2.80
2022-08-30T16:49:20.567Z,2.95
2022-08-30T16:51:49.567Z,4.80
2022-08-30T16:54:17.391Z,4.00
2022-08-30T16:56:44.259Z,4.55
2022-08-30T16:59:13.130Z,3.42
2022-08-30T17:01:41.116Z,2.25
2022-08-30T17:04:08.331Z,4.18
2022-08-30T17:06:35.580Z,2.90
2022-08-30T17:09:02.471Z,2.83
2022-08-30T17:11:29.010Z,3.70
2022-08-30T17:13:55.501Z,3.53
2022-08-30T17:16:28.192Z,2.03
2022-08-30T17:18:55.996Z,3.00
2022-08-30T17:21:26.898Z,2.38
2022-08-30T17:23:53.492Z,2.25
2022-08-30T17:26:20.244Z,3.42
2022-08-30T17:28:46.836Z,4.18
2022-08-30T17:31:14.825Z,1.55
2022-08-30T17:33:43.048Z,3.03
2022-08-30T17:36:12.245Z,2.40
2022-08-30T17:38:40.051Z,2.70
2022-08-30T17:41:11.447Z,3.92
2022-08-30T17:43:38.240Z,2.95
2022-08-30T17:46:06.440Z,3.83
2022-08-30T17:48:32.961Z,8.20
2022-08-30T17:50:59.652Z,5.20
2022-08-30T17:53:26.252Z,2.83
2022-08-30T17:55:52.720Z,3.30
2022-08-30T17:58:19.194Z,1.70
2022-08-30T18:00:48.473Z,2.53
2022-08-30T18:03:17.469Z,4.00
2022-08-30T18:05:46.966Z,2.55
2022-08-30T18:08:13.871Z,3.13
2022-08-30T18:10:40.463Z,3.42
2022-08-30T18:13:06.917Z,2.67
2022-08-30T18:15:33.959Z,3.35
2022-08-30T18:18:00.637Z,3.63
2022-08-30T18:20:27.216Z,5.18
2022-08-30T18:22:57.856Z,2.45
2022-08-30T18:25:24.363Z,4.00
2022-08-30T18:27:58.809Z,2.60
2022-08-30T18:30:31.207Z,3.40
2022-08-30T18:33:00.729Z,2.00
2022-08-30T18:35:27.380Z,2.83
2022-08-30T18:37:54.284Z,3.20
2022-08-30T18:40:21.002Z,2.13
2022-08-30T18:42:47.702Z,3.35
2022-08-30T18:45:15.300Z,4.00
2022-08-30T18:47:42.138Z,1.88
2022-08-30T18:50:08.857Z,2.75
2022-08-30T18:52:35.342Z,3.35
2022-08-30T18:55:02.414Z,2.50
2022-08-30T18:57:29.134Z,1.92
2022-08-30T18:59:57.620Z,2.85
2022-08-30T19:02:27.817Z,2.25
2022-08-30T19:04:54.480Z,2.85
2022-08-30T19:07:21.540Z,3.65
2022-08-30T19:09:55.684Z,2.03
2022-08-30T19:12:26.131Z,2.70
2022-08-30T19:14:54.171Z,2.63
2022-08-30T19:17:23.044Z,1.52
2022-08-30T19:19:52.425Z,2.50
2022-08-30T19:22:20.253Z,2.33
2022-08-30T19:24:47.844Z,4.18
2022-08-30T19:27:16.816Z,5.53
2022-08-30T19:29:44.502Z,1.98
2022-08-30T19:32:11.929Z,2.20
2022-08-30T19:34:39.733Z,4.38
2022-08-30T19:37:06.195Z,2.75
2022-08-30T19:39:33.017Z,2.40
2022-08-30T19:41:59.675Z,3.00
2022-08-30T19:44:26.800Z,1.70
2022-08-30T19:46:53.512Z,2.95
2022-08-30T19:49:21.309Z,3.03
2022-08-30T19:51:48.240Z,2.20
2022-08-30T19:54:15.289Z,4.13
2022-08-30T19:56:43.832Z,3.40
2022-08-30T19:59:10.300Z,2.33
2022-08-30T20:01:37.161Z,2.50
2022-08-30T20:04:03.805Z,2.53
2022-08-30T20:06:30.872Z,2.67
2022-08-30T20:08:58.297Z,2.40
2022-08-30T20:11:27.141Z,3.35
2022-08-30T20:13:53.617Z,2.55
2022-08-30T20:16:20.152Z,2.50
2022-08-30T20:18:48.949Z,3.83
2022-08-30T20:21:16.074Z,3.88
2022-08-30T20:23:43.390Z,3.05
2022-08-30T20:26:10.605Z,2.97
2022-08-30T20:28:37.799Z,2.72
2022-08-30T20:31:05.553Z,3.03
2022-08-30T20:33:32.136Z,4.25
2022-08-30T20:36:01.985Z,2.90
2022-08-30T20:38:28.472Z,4.22
2022-08-30T20:40:56.663Z,3.38
2022-08-30T20:43:24.521Z,1.90
2022-08-30T20:45:51.196Z,3.08
2022-08-30T20:48:17.911Z,4.22
2022-08-30T20:50:44.847Z,5.05
2022-08-30T20:53:11.848Z,2.58
2022-08-30T20:55:45.578Z,3.20
2022-08-30T20:58:12.183Z,2.05
2022-08-30T21:00:38.947Z,3.55
2022-08-30T21:03:08.288Z,5.22
2022-08-30T21:05:52.043Z,2.47
2022-08-30T21:08:18.753Z,3.80
2022-08-30T21:10:46.274Z,2.75
2022-08-30T21:13:12.859Z,2.45
2022-08-30T21:15:39.425Z,3.92
2022-08-30T21:18:05.970Z,2.42
2022-08-30T21:20:32.885Z,2.20
2022-08-30T21:22:59.400Z,4.20
2022-08-30T21:25:26.008Z,2.58
2022-08-30T21:27:53.696Z,2.58
2022-08-30T21:30:20.232Z,4.35
2022-08-30T21:32:46.799Z,2.55
2022-08-30T21:35:32.093Z,3.80
2022-08-30T21:37:58.614Z,2.85
2022-08-30T21:40:25.181Z,2.08
2022-08-30T21:42:52.039Z,3.90
2022-08-30T21:45:19.026Z,3.53
2022-08-30T21:47:45.494Z,2.53
2022-08-30T21:50:12.034Z,3.03
2022-08-30T21:52:38.522Z,4.15
2022-08-30T21:55:05.363Z,3.22
2022-08-30T21:57:32.920Z,3.72
2022-08-30T21:59:59.662Z,3.17
2022-08-30T22:02:26.298Z,2.38
2022-08-30T22:04:52.864Z,2.72
2022-08-30T22:07:20.456Z,3.72
2022-08-30T22:09:46.928Z,4.18
2022-08-30T22:12:13.419Z,4.35
2022-08-30T22:14:40.688Z,4.22
2022-08-30T22:17:07.273Z,2.63
2022-08-30T22:19:34.065Z,2.15
2022-08-30T22:22:01.590Z,3.20
2022-08-30T22:24:32.000Z,2.70
2022-08-30T22:26:59.924Z,4.18
2022-08-30T22:29:26.421Z,2.65
2022-08-30T22:31:54.004Z,3.00
2022-08-30T22:34:20.646Z,2.42
2022-08-30T22:36:47.198Z,3.33
2022-08-30T22:39:13.899Z,4.47
2022-08-30T22:41:41.437Z,3.55
2022-08-30T22:44:08.387Z,3.50
2022-08-30T22:46:35.375Z,2.22
2022-08-30T22:49:02.868Z,3.22
2022-08-30T22:51:29.649Z,3.80
2022-08-30T22:53:56.526Z,3.63
2022-08-30T22:56:24.873Z,3.08
2022-08-30T22:58:51.910Z,3.85
2022-08-30T23:01:26.978Z,2.58
2022-08-30T23:03:53.990Z,4.10
2022-08-30T23:06:20.588Z,3.72
2022-08-30T23:08:47.108Z,3.28
2022-08-30T23:11:13.951Z,3.40
2022-08-30T23:13:40.817Z,3.30
2022-08-30T23:16:08.392Z,2.95
2022-08-30T23:18:36.025Z,3.55
2022-08-30T23:21:10.946Z,3.05
2022-08-30T23:23:56.277Z,3.38
2022-08-30T23:26:41.521Z,3.00
2022-08-30T23:29:26.552Z,3.63
2022-08-30T23:32:11.766Z,3.35
2022-08-30T23:34:57.020Z,3.90
2022-08-30T23:37:42.145Z,3.63
2022-08-30T23:40:27.373Z,3.42
2022-08-30T23:43:12.596Z,5.07
2022-08-30T23:45:57.889Z,4.15
2022-08-30T23:48:50.951Z,4.75
2022-08-30T23:51:37.425Z,5.05
2022-08-30T23:54:23.076Z,2.83
2022-08-30T23:57:08.328Z,4.72
2022-08-30T23:59:53.488Z,4.05
